createdAt,value
2023-12-30T00:01:43.695Z,46.6
2023-12-30T00:04:28.346Z,45.3
2023-12-30T00:07:12.959Z,49.7
2023-12-30T00:09:57.000Z,48.2
2023-12-30T00:12:42.246Z,49.9
2023-12-30T00:15:26.000Z,51.4
2023-12-30T00:18:11.000Z,54.8
2023-12-30T00:20:56.158Z,54.2
2023-12-30T00:23:40.813Z,53.4
2023-12-30T00:24:58.000Z,52.1
2023-12-30T00:26:25.000Z,54.1
2023-12-30T00:29:09.000Z,55.7
2023-12-30T00:31:54.000Z,55.2
2023-12-30T00:34:39.000Z,55.4
2023-12-30T00:37:24.036Z,57.8
2023-12-30T00:40:08.642Z,54.7
2023-12-30T00:42:53.289Z,56.9
2023-12-30T00:45:37.937Z,58.8
2023-12-30T00:48:22.572Z,60.1
2023-12-30T00:51:06.000Z,59.4
2023-12-30T00:52:25.062Z,62.5
2023-12-30T00:53:51.867Z,65.8
2023-12-30T00:56:36.000Z,69.6
2023-12-30T00:59:21.144Z,77.7
2023-12-30T01:02:05.000Z,86.3
2023-12-30T01:04:50.427Z,83.7
2023-12-30T01:07:34.000Z,83.4
2023-12-30T01:10:19.713Z,88.1
2023-12-30T01:13:04.000Z,84.8
2023-12-30T01:15:48.000Z,83.1
2023-12-30T01:18:33.634Z,85
2023-12-30T01:19:51.482Z,82.5
2023-12-30T01:21:18.273Z,80.9
2023-12-30T01:24:02.916Z,80
2023-12-30T01:26:47.000Z,79
2023-12-30T01:29:32.192Z,82.4
2023-12-30T01:32:16.836Z,84.2
2023-12-30T01:35:01.000Z,80.2
2023-12-30T01:37:45.000Z,78.4
2023-12-30T01:40:30.000Z,79.5
2023-12-30T01:43:15.407Z,79.8
2023-12-30T01:45:59.000Z,76.3
2023-12-30T01:47:17.925Z,78.5
2023-12-30T01:48:44.000Z,80.9
2023-12-30T01:51:29.000Z,79.8
2023-12-30T01:54:13.000Z,78.8
2023-12-30T01:56:58.608Z,78.5
2023-12-30T01:59:43.255Z,77.8
2023-12-30T02:02:27.000Z,78
2023-12-30T02:05:12.536Z,76.7
2023-12-30T02:07:57.176Z,77.5
2023-12-30T02:10:41.816Z,77.4
2023-12-30T02:14:44.000Z,78.4
2023-12-30T02:16:10.000Z,79.1
2023-12-30T02:18:55.750Z,79.4
2023-12-30T02:21:40.000Z,76.8
2023-12-30T02:24:25.031Z,76.3
2023-12-30T02:27:09.662Z,74.1
2023-12-30T02:29:54.000Z,74.7
2023-12-30T02:32:38.942Z,73.4
2023-12-30T02:35:23.597Z,73.6
2023-12-30T02:38:08.230Z,72.8
2023-12-30T02:40:52.868Z,70.6
2023-12-30T02:42:10.000Z,71.4
2023-12-30T02:43:37.515Z,71.4
2023-12-30T02:46:22.155Z,70.6
2023-12-30T02:49:06.000Z,70.2
2023-12-30T02:51:51.000Z,68.1
2023-12-30T02:54:35.000Z,68
2023-12-30T03:00:05.361Z,68.8
2023-12-30T03:02:50.021Z,67.9
2023-12-30T03:05:34.658Z,65.6
2023-12-30T03:08:19.289Z,64.6
2023-12-30T03:09:36.000Z,64.8
2023-12-30T03:11:03.946Z,64.9
2023-12-30T03:13:48.592Z,65
2023-12-30T03:16:33.207Z,64.3
2023-12-30T03:19:17.869Z,63.7
2023-12-30T03:22:02.000Z,63.7
2023-12-30T03:24:46.000Z,63.7
2023-12-30T03:27:31.765Z,63.4
2023-12-30T03:30:16.413Z,61.6
2023-12-30T03:33:00.000Z,60
2023-12-30T03:35:45.692Z,59.7
2023-12-30T03:37:03.636Z,59.5
2023-12-30T03:38:30.333Z,60.4
2023-12-30T03:41:14.000Z,59.5
2023-12-30T03:43:59.000Z,58.5
2023-12-30T03:46:44.000Z,58.6
2023-12-30T03:49:28.000Z,59.2
2023-12-30T03:52:13.539Z,59
2023-12-30T03:54:58.177Z,56.8
2023-12-30T03:57:42.000Z,58.4
2023-12-30T04:00:27.000Z,59.7
2023-12-30T04:03:11.000Z,60.9
2023-12-30T04:04:30.089Z,63.3
2023-12-30T04:05:56.757Z,64.7
2023-12-30T04:08:41.386Z,65.7
2023-12-30T04:11:26.043Z,66.1
2023-12-30T04:14:10.674Z,67.9
2023-12-30T04:16:55.304Z,70
2023-12-30T04:19:39.000Z,73.2
2023-12-30T04:22:24.587Z,73.5
2023-12-30T04:25:09.236Z,73.8
2023-12-30T04:27:53.000Z,73.7
2023-12-30T04:30:38.000Z,72
2023-12-30T04:31:56.000Z,69.9
2023-12-30T04:33:22.000Z,69.1
2023-12-30T04:36:07.812Z,67.4
2023-12-30T04:38:52.437Z,67
2023-12-30T04:41:37.093Z,68.4
2023-12-30T04:44:21.000Z,68.2
2023-12-30T04:47:06.000Z,67.7
2023-12-30T04:49:50.000Z,69.4
2023-12-30T04:52:35.654Z,67.5
2023-12-30T04:55:20.000Z,67.3
2023-12-30T04:58:04.000Z,66.1
2023-12-30T04:59:22.000Z,67.6
2023-12-30T05:00:49.565Z,69.4
2023-12-30T05:03:33.000Z,68.2
2023-12-30T05:06:18.000Z,67.3
2023-12-30T05:09:03.515Z,65.8
2023-12-30T05:11:47.000Z,64.5
2023-12-30T05:14:32.000Z,65.1
2023-12-30T05:17:17.414Z,64.7
2023-12-30T05:20:02.048Z,66.1
2023-12-30T05:22:46.712Z,66.8
2023-12-30T05:25:31.350Z,67.1
2023-12-30T05:26:49.000Z,67.1
2023-12-30T05:28:15.000Z,67.6
2023-12-30T05:31:00.000Z,68.5
2023-12-30T05:33:45.000Z,65.6
2023-12-30T05:36:29.904Z,70.2
2023-12-30T05:39:14.000Z,70.4
2023-12-30T05:41:59.198Z,69.9
2023-12-30T05:44:43.000Z,69.2
2023-12-30T05:47:28.632Z,69.6
2023-12-30T05:50:29.490Z,68.5
2023-12-30T05:53:13.000Z,67.3
2023-12-30T05:54:31.836Z,68.4
2023-12-30T05:55:58.000Z,69
2023-12-30T05:58:43.000Z,70.5
2023-12-30T06:01:27.000Z,70.9
2023-12-30T06:04:12.000Z,69.1
2023-12-30T06:06:57.000Z,73.8
2023-12-30T06:09:41.000Z,72.8
2023-12-30T06:12:26.000Z,72.2
2023-12-30T06:15:11.000Z,70.5
2023-12-30T06:17:55.898Z,70.3
2023-12-30T06:20:40.543Z,71.6
2023-12-30T06:21:58.265Z,71.6
2023-12-30T06:23:24.000Z,69.4
2023-12-30T06:26:09.000Z,69.4
2023-12-30T06:28:54.454Z,73.5
2023-12-30T06:31:38.000Z,70.7
2023-12-30T06:34:23.735Z,70.5
2023-12-30T06:37:08.389Z,69.9
2023-12-30T06:39:53.020Z,69.6
2023-12-30T06:42:37.000Z,71.2
2023-12-30T06:48:06.949Z,69
2023-12-30T06:49:24.000Z,68.3
2023-12-30T06:50:51.000Z,67.7
2023-12-30T06:56:20.876Z,66.9
2023-12-30T06:59:05.505Z,66.1
2023-12-30T07:01:49.000Z,66.7
2023-12-30T07:04:34.000Z,67
2023-12-30T07:07:19.000Z,67.5
2023-12-30T07:10:04.078Z,67.5
2023-12-30T07:12:48.000Z,67.3
2023-12-30T07:15:33.000Z,66.3
2023-12-30T07:16:51.126Z,65.3
2023-12-30T07:18:17.000Z,65.7
2023-12-30T07:21:02.651Z,65.8
2023-12-30T07:23:47.282Z,66.3
2023-12-30T07:26:31.000Z,65
2023-12-30T07:29:16.000Z,64.1
2023-12-30T07:32:00.000Z,65.3
2023-12-30T07:34:45.000Z,66.4
2023-12-30T07:37:30.000Z,66.2
2023-12-30T07:40:14.000Z,66.9
2023-12-30T07:42:59.000Z,65.2
2023-12-30T07:44:17.000Z,66.5
2023-12-30T07:48:28.000Z,68.2
2023-12-30T07:51:13.000Z,68.6
2023-12-30T07:53:58.000Z,70.4
2023-12-30T07:56:42.992Z,72
2023-12-30T07:59:27.000Z,72.1
2023-12-30T08:02:12.000Z,72.6
2023-12-30T08:04:56.906Z,70.2
2023-12-30T08:07:41.529Z,70.1
2023-12-30T08:10:25.000Z,72.3
2023-12-30T08:11:43.000Z,74
2023-12-30T08:13:10.000Z,73.5
2023-12-30T08:15:55.000Z,73.7
2023-12-30T08:18:40.114Z,72.3
2023-12-30T08:21:24.000Z,72.5
2023-12-30T08:24:09.401Z,73.3
2023-12-30T08:26:54.029Z,74.2
2023-12-30T08:29:38.673Z,75.4
2023-12-30T08:32:23.000Z,74.5
2023-12-30T08:35:07.000Z,76.8
2023-12-30T08:37:52.000Z,75.7
2023-12-30T08:39:10.430Z,75.3
2023-12-30T08:40:37.000Z,77.6
2023-12-30T08:43:21.000Z,77.5
2023-12-30T08:46:06.526Z,80.3
2023-12-30T08:48:50.000Z,79.5
2023-12-30T08:51:35.000Z,79.5
2023-12-30T08:54:20.000Z,81.6
2023-12-30T08:57:04.000Z,81
2023-12-30T08:59:49.000Z,81.7
2023-12-30T09:02:34.000Z,82.4
2023-12-30T09:05:18.000Z,84.3
2023-12-30T09:06:36.844Z,84.9
2023-12-30T09:10:48.000Z,83.5
2023-12-30T09:13:32.000Z,84.5
2023-12-30T09:16:17.000Z,86.6
2023-12-30T09:19:01.000Z,86.7
2023-12-30T09:21:46.000Z,87.3
2023-12-30T09:24:31.496Z,86.8
2023-12-30T09:30:00.000Z,87.9
2023-12-30T09:32:45.439Z,87.7
2023-12-30T09:34:03.000Z,90.8
2023-12-30T09:35:30.071Z,93.1
2023-12-30T09:38:14.000Z,94
2023-12-30T09:40:59.000Z,93.5
2023-12-30T09:43:43.000Z,97.3
2023-12-30T09:46:28.637Z,95.8
2023-12-30T09:49:13.296Z,96.2
2023-12-30T09:51:57.911Z,93.7
2023-12-30T09:54:42.544Z,89.5
2023-12-30T09:57:27.187Z,89.8
2023-12-30T10:00:11.000Z,91.6
2023-12-30T10:01:29.000Z,92.2
2023-12-30T10:02:56.000Z,91.5
2023-12-30T10:05:40.000Z,90.2
2023-12-30T10:11:10.000Z,90.1
2023-12-30T10:13:54.000Z,89.2
2023-12-30T10:16:39.000Z,90.3
2023-12-30T10:19:24.000Z,89.2
2023-12-30T10:22:08.000Z,91
2023-12-30T10:27:38.000Z,91.1
2023-12-30T10:28:55.000Z,91.4
2023-12-30T10:30:22.000Z,90.7
2023-12-30T10:33:07.532Z,89.3
2023-12-30T10:35:51.000Z,89.7
2023-12-30T10:38:36.818Z,89.3
2023-12-30T10:41:21.464Z,89.5
2023-12-30T10:44:05.000Z,89.5
2023-12-30T10:46:50.730Z,89.8
2023-12-30T10:49:35.379Z,86.8
2023-12-30T10:52:20.012Z,89.1
2023-12-30T10:55:04.000Z,89.5
2023-12-30T10:56:22.000Z,90.1
2023-12-30T10:57:49.000Z,89
2023-12-30T11:00:33.000Z,90.1
2023-12-30T11:03:18.000Z,89.7
2023-12-30T11:06:02.000Z,91.5
2023-12-30T11:08:47.000Z,92.1
2023-12-30T11:11:32.525Z,95.1
2023-12-30T11:14:17.142Z,95.6
2023-12-30T11:17:01.000Z,95.7
2023-12-30T11:19:46.427Z,93.4
2023-12-30T11:22:30.000Z,92.6
2023-12-30T11:23:48.000Z,90.6
2023-12-30T11:25:15.000Z,90.8
2023-12-30T11:28:00.000Z,90.3
2023-12-30T11:30:44.000Z,90.6
2023-12-30T11:33:29.000Z,90.9
2023-12-30T11:36:14.000Z,89.8
2023-12-30T11:38:58.000Z,91.2
2023-12-30T11:41:43.551Z,90.9
2023-12-30T11:44:27.000Z,89.4
2023-12-30T11:47:12.000Z,88.8
2023-12-30T11:49:57.497Z,90.6
2023-12-30T11:51:15.000Z,90.5
2023-12-30T11:52:41.000Z,90.9
2023-12-30T11:55:26.000Z,91.9
2023-12-30T11:58:11.000Z,91.2
2023-12-30T12:00:56.041Z,90.3
2023-12-30T12:03:40.000Z,91.3
2023-12-30T12:06:25.000Z,90.5
2023-12-30T12:09:09.962Z,89.6
2023-12-30T12:11:54.610Z,90.2
2023-12-30T12:14:39.250Z,89.4
2023-12-30T12:17:23.000Z,89.5
2023-12-30T12:18:41.000Z,89.9
2023-12-30T12:20:08.000Z,90.9
2023-12-30T12:22:52.000Z,90.7
2023-12-30T12:25:37.812Z,89.7
2023-12-30T12:28:22.000Z,90.9
2023-12-30T12:31:07.095Z,90.9
2023-12-30T12:33:51.769Z,92.4
2023-12-30T12:36:36.389Z,92.4
2023-12-30T12:39:20.000Z,93
2023-12-30T12:42:05.000Z,92.3
2023-12-30T12:44:50.313Z,93.5
2023-12-30T12:46:08.000Z,93.7
2023-12-30T12:47:34.942Z,93.2
2023-12-30T12:50:19.584Z,91.7
2023-12-30T12:53:03.000Z,92.5
2023-12-30T12:55:48.869Z,92.5
2023-12-30T12:58:33.514Z,90.8
2023-12-30T13:01:17.000Z,92.1
2023-12-30T13:04:02.794Z,91.3
2023-12-30T13:06:47.427Z,91.1
2023-12-30T13:09:31.000Z,92.4
2023-12-30T13:12:16.000Z,92.6
2023-12-30T13:13:34.708Z,92.7
2023-12-30T13:15:01.352Z,91
2023-12-30T13:17:45.000Z,90.7
2023-12-30T13:20:30.630Z,91
2023-12-30T13:23:15.277Z,91.6
2023-12-30T13:25:59.000Z,91.6
2023-12-30T13:28:44.565Z,90.9
2023-12-30T13:31:28.000Z,91.3
2023-12-30T13:34:13.000Z,91.2
2023-12-30T13:36:58.484Z,91.7
2023-12-30T13:39:43.119Z,90
2023-12-30T13:41:01.132Z,89.5
2023-12-30T13:42:27.000Z,90
2023-12-30T13:45:12.000Z,89.8
2023-12-30T13:47:56.000Z,88.4
2023-12-30T13:50:41.000Z,88.9
2023-12-30T13:53:26.324Z,87.9
2023-12-30T13:56:10.964Z,88.4
2023-12-30T13:58:55.000Z,87.2
2023-12-30T14:01:40.249Z,87.2
2023-12-30T14:04:24.881Z,87.5
2023-12-30T14:07:09.000Z,87.1
2023-12-30T14:08:27.723Z,86.4
2023-12-30T14:09:54.181Z,87.5
2023-12-30T14:12:38.809Z,87.2
2023-12-30T14:15:23.449Z,86.7
2023-12-30T14:18:08.091Z,86.9
2023-12-30T14:20:52.731Z,86.4
2023-12-30T14:23:37.000Z,88.2
2023-12-30T14:26:21.000Z,87.7
2023-12-30T14:29:06.657Z,86.6
2023-12-30T14:31:51.296Z,86.5
2023-12-30T14:34:35.000Z,87.1
2023-12-30T14:37:20.580Z,87
2023-12-30T14:38:38.303Z,86.7
2023-12-30T14:40:04.000Z,86.7
2023-12-30T14:45:34.000Z,88.7
2023-12-30T14:48:19.148Z,88
2023-12-30T14:51:03.797Z,88.6
2023-12-30T14:53:48.000Z,89.8
2023-12-30T14:56:32.000Z,90.9
2023-12-30T14:59:17.000Z,91.4
2023-12-30T15:02:02.000Z,90.8
2023-12-30T15:04:46.000Z,91.1
2023-12-30T15:06:04.000Z,90.3
2023-12-30T15:07:31.000Z,90.3
2023-12-30T15:10:16.000Z,90.9
2023-12-30T15:13:00.000Z,90.6
2023-12-30T15:15:45.570Z,89.4
2023-12-30T15:18:30.203Z,92.6
2023-12-30T15:21:14.843Z,92.5
2023-12-30T15:23:59.000Z,91.7
2023-12-30T15:26:44.120Z,93.3
2023-12-30T15:29:28.772Z,93.5
2023-12-30T15:32:13.000Z,92.5
2023-12-30T15:33:30.000Z,93.4
2023-12-30T15:34:58.042Z,93.8
2023-12-30T15:37:42.000Z,93.2
2023-12-30T15:40:27.000Z,93.6
2023-12-30T15:43:11.000Z,93.2
2023-12-30T15:45:56.000Z,93.6
2023-12-30T15:48:41.264Z,95.3
2023-12-30T15:51:25.905Z,94.5
2023-12-30T15:54:10.000Z,95.4
2023-12-30T15:56:54.000Z,95
2023-12-30T15:59:39.000Z,93.7
2023-12-30T16:00:57.000Z,93.6
2023-12-30T16:02:24.000Z,93.2
2023-12-30T16:05:08.000Z,94.4
2023-12-30T16:07:53.000Z,96.3
2023-12-30T16:10:38.000Z,96.3
2023-12-30T16:13:23.040Z,95.7
2023-12-30T16:16:07.671Z,95.5
2023-12-30T16:18:52.000Z,95.5
2023-12-30T16:21:36.000Z,96.3
2023-12-30T16:24:21.589Z,95.9
2023-12-30T16:27:06.238Z,96.3
2023-12-30T16:28:23.000Z,95.8
2023-12-30T16:29:50.000Z,95.7
2023-12-30T16:32:35.000Z,95.1
2023-12-30T16:35:19.000Z,98
2023-12-30T16:38:04.000Z,99
2023-12-30T16:40:49.453Z,99.6
2023-12-30T16:43:33.000Z,98.3
2023-12-30T16:46:18.730Z,98.3
2023-12-30T16:49:03.000Z,97.8
2023-12-30T16:54:32.000Z,98.5
2023-12-30T16:55:50.461Z,98.7
2023-12-30T16:57:17.000Z,98.3
2023-12-30T17:00:01.938Z,97.5
2023-12-30T17:02:46.000Z,98.5
2023-12-30T17:05:31.217Z,98.7
2023-12-30T17:08:15.000Z,99.4
2023-12-30T17:11:00.521Z,99.3
2023-12-30T17:13:45.141Z,99
2023-12-30T17:16:29.786Z,98.8
2023-12-30T17:19:14.438Z,97.7
2023-12-30T17:21:59.060Z,97.9
2023-12-30T17:23:16.000Z,95.9
2023-12-30T17:24:43.000Z,96.8
2023-12-30T17:27:28.351Z,95.9
2023-12-30T17:32:57.000Z,94.5
2023-12-30T17:35:42.288Z,94.4
2023-12-30T17:38:26.941Z,94.8
2023-12-30T17:41:11.000Z,96
2023-12-30T17:46:40.000Z,95.6
2023-12-30T17:49:25.000Z,96.3
2023-12-30T17:50:43.000Z,95.7
2023-12-30T17:52:10.150Z,96.3
2023-12-30T17:54:54.764Z,95.3
2023-12-30T17:57:39.416Z,94.8
2023-12-30T18:00:24.068Z,94.3
2023-12-30T18:03:08.699Z,94.3
2023-12-30T18:05:53.339Z,93.4
2023-12-30T18:08:37.975Z,94.7
2023-12-30T18:11:22.618Z,95.3
2023-12-30T18:14:07.262Z,95.1
2023-12-30T18:16:51.922Z,95.8
2023-12-30T18:18:09.765Z,96.2
2023-12-30T18:19:36.000Z,96.1
2023-12-30T18:22:20.000Z,95.8
2023-12-30T18:25:05.000Z,95.9
2023-12-30T18:27:50.476Z,96
2023-12-30T18:30:35.116Z,95.3
2023-12-30T18:33:19.000Z,94
2023-12-30T18:36:04.402Z,95.1
2023-12-30T18:38:48.000Z,94.7
2023-12-30T18:41:33.000Z,93.8
2023-12-30T18:44:18.340Z,94
2023-12-30T18:45:36.195Z,91.7
2023-12-30T18:47:02.000Z,92.1
2023-12-30T18:49:47.605Z,92.5
2023-12-30T18:52:32.253Z,91.9
2023-12-30T18:55:16.885Z,91.4
2023-12-30T18:58:01.534Z,91.9
2023-12-30T19:00:46.176Z,90.3
2023-12-30T19:03:30.809Z,89.5
2023-12-30T19:06:15.461Z,90.3
2023-12-30T19:09:00.095Z,89.6
2023-12-30T19:11:44.000Z,87.7
2023-12-30T19:13:02.625Z,87.5
2023-12-30T19:14:29.375Z,88.3
2023-12-30T19:17:14.014Z,87.3
2023-12-30T19:19:58.000Z,86.7
2023-12-30T19:22:43.000Z,86.7
2023-12-30T19:25:27.940Z,88.7
2023-12-30T19:28:12.577Z,90.1
2023-12-30T19:30:57.246Z,89.7
2023-12-30T19:33:41.876Z,88.1
2023-12-30T19:36:26.506Z,88.4
2023-12-30T19:39:11.142Z,88.5
2023-12-30T19:40:28.000Z,86.5
2023-12-30T19:41:55.792Z,86.5
2023-12-30T19:44:40.000Z,87
2023-12-30T19:47:24.000Z,85.5
2023-12-30T19:50:09.711Z,85.1
2023-12-30T19:52:54.000Z,84.8
2023-12-30T19:55:38.000Z,83.7
2023-12-30T19:58:23.000Z,83.8
2023-12-30T20:01:08.274Z,85.8
2023-12-30T20:03:52.000Z,85.7
2023-12-30T20:06:37.558Z,86
2023-12-30T20:07:55.000Z,85.2
2023-12-30T20:09:21.000Z,85.4
2023-12-30T20:12:06.000Z,85.2
2023-12-30T20:14:51.000Z,85.5
2023-12-30T20:17:35.000Z,87
2023-12-30T20:20:20.000Z,87.4
2023-12-30T20:23:05.404Z,87.5
2023-12-30T20:25:49.000Z,87.9
2023-12-30T20:28:34.000Z,88.2
2023-12-30T20:31:19.334Z,88.4
2023-12-30T20:34:03.000Z,87.4
2023-12-30T20:35:21.923Z,88.2
2023-12-30T20:36:48.611Z,88.6
2023-12-30T20:39:33.259Z,89.9
2023-12-30T20:42:17.000Z,89.9
2023-12-30T20:45:02.527Z,90
2023-12-30T20:47:46.000Z,91.5
2023-12-30T20:50:31.000Z,91.7
2023-12-30T20:53:16.000Z,90.9
2023-12-30T20:56:01.096Z,89.5
2023-12-30T20:58:45.000Z,88.4
2023-12-30T21:01:30.000Z,88.2
2023-12-30T21:02:48.334Z,87.6
2023-12-30T21:04:15.026Z,88.6
2023-12-30T21:06:59.662Z,90.3
2023-12-30T21:09:44.000Z,89.3
2023-12-30T21:12:28.953Z,86.8
2023-12-30T21:15:13.593Z,88
2023-12-30T21:17:58.235Z,88.1
2023-12-30T21:20:42.871Z,90.3
2023-12-30T21:23:27.000Z,92.2
2023-12-30T21:26:11.000Z,92.4
2023-12-30T21:28:56.788Z,92
2023-12-30T21:30:14.788Z,92.4
2023-12-30T21:31:41.000Z,92.9
2023-12-30T21:34:25.000Z,93.5
2023-12-30T21:37:10.720Z,92.3
2023-12-30T21:39:55.353Z,94.8
2023-12-30T21:42:39.999Z,94.7
2023-12-30T21:45:24.000Z,95
2023-12-30T21:48:09.000Z,95
2023-12-30T21:50:53.000Z,94.8
2023-12-30T21:53:38.567Z,97
2023-12-30T21:56:23.211Z,95.7
2023-12-30T21:57:40.000Z,95.8
2023-12-30T21:59:07.851Z,95.5
2023-12-30T22:01:52.000Z,96.3
2023-12-30T22:04:37.129Z,95.2
2023-12-30T22:07:21.000Z,95.4
2023-12-30T22:10:06.410Z,96.2
2023-12-30T22:12:51.055Z,95.6
2023-12-30T22:15:35.685Z,94.5
2023-12-30T22:18:20.000Z,95.4
2023-12-30T22:21:04.000Z,94.7
2023-12-30T22:23:49.000Z,94.2
2023-12-30T22:25:07.000Z,94.3
2023-12-30T22:26:34.000Z,94.4
2023-12-30T22:29:18.899Z,94
2023-12-30T22:32:03.537Z,92.4
2023-12-30T22:34:48.180Z,91.8
2023-12-30T22:37:32.000Z,90.7
2023-12-30T22:40:33.000Z,89.7
2023-12-30T22:43:18.000Z,89.3
2023-12-30T22:46:02.000Z,89
2023-12-30T22:48:47.764Z,88.8
2023-12-30T22:51:32.415Z,89.3
2023-12-30T22:52:49.000Z,87.6
2023-12-30T22:54:17.044Z,88.1
2023-12-30T22:57:01.685Z,87
2023-12-30T22:59:46.334Z,87
2023-12-30T23:02:30.976Z,84.7
2023-12-30T23:05:15.000Z,85.3
2023-12-30T23:08:00.255Z,86
2023-12-30T23:10:44.889Z,86.4
2023-12-30T23:13:29.000Z,84.6
2023-12-30T23:16:14.182Z,83.5
2023-12-30T23:18:58.000Z,84.1
2023-12-30T23:20:16.000Z,86
2023-12-30T23:21:43.000Z,85.9
2023-12-30T23:24:28.103Z,86.8
2023-12-30T23:27:12.736Z,87.7
2023-12-30T23:29:57.000Z,89
2023-12-30T23:32:42.036Z,89.5
2023-12-30T23:35:26.671Z,89.3
2023-12-30T23:38:11.000Z,90.4
2023-12-30T23:40:55.000Z,91.4
2023-12-30T23:43:40.000Z,91.4
2023-12-30T23:46:25.227Z,89.9
2023-12-30T23:47:42.000Z,88.5
2023-12-30T23:49:09.869Z,88.3
2023-12-30T23:51:54.000Z,87.8
2023-12-30T23:54:39.158Z,88
2023-12-30T23:57:23.000Z,88
